Aviation Digital Data Service (ADDS)

Output produced by METARs form (1251 UTC 30 May 2017)
found at http://aviationweather.gov/adds/metars/
 
KHUL 301120Z 3012/3112 16005KT P6SM OVC060 
     FM301700 19011G19KT P6SM SCT060 
     FM310000 18009KT P6SM BKN045 
     FM310500 18008KT P6SM VCSH BKN020 
     FM310700 17007KT 3SM -SHRA BKN008 OVC025